Portada
METAR-TAF:

METAR-TAF

Aeroports :

Udon Thani, Tailàndia

latitud: 17-23N, longitud: 102-48E, altitud: 177 m

Observació

L'informe es va fer fa 7 hores i 40 minuts, a les 15:00 UTC
Vent 9 kt del Est
Temperatura 27°C
Humitat 54%
Pressió 1014 hPa
Visibilitat: 9000 m

METAR: VTUD 161500Z 09009KT 9000 NSC 27/17 Q1014 NOSIG

Hora: 05:40 (22:40 UTC)

Pronòstic

L'informe es va fer fa 5 hores i 40 minuts, a les 17:00 UTC
Pronòstic vàlid del 16 a les 18 UTC al 17 a les 18 UTC
Vent 10 kt del Est
Visibilitat: 9000 m

TAF: VTUD 161700Z 1618/1718 10010KT 9000 NSC

Observacions i pronòstics meteorològics de més de 4000 aeroports (METAR i TAF).

Les estacions disponibles són els punts grocs i vermells al mapa.

Posi el ratolí al punt desitjat per veure el nom de l'estació.

Feu clic per veure les observacions i els pronòstics meteorològics.

Per canviar el mapa: feu clic els botons verds amb una creu de color negre per apropar; al botó verd amb un guió per allunyar la imatge; o en les fletxes verdes per a mapes adjacents.


METAR-TAF: